sensor_id;sensor_type;location;lat;lon;timestamp;temperature;humidity
13982;DHT22;7065;50.880;5.502;2022-10-28T00:00:22;17.80;99.90
13982;DHT22;7065;50.880;5.502;2022-10-28T00:02:48;17.70;99.90
13982;DHT22;7065;50.880;5.502;2022-10-28T00:05:13;17.60;99.90
13982;DHT22;7065;50.880;5.502;2022-10-28T00:07:39;17.60;99.90
13982;DHT22;7065;50.880;5.502;2022-10-28T00:10:05;17.50;99.90
13982;DHT22;7065;50.880;5.502;2022-10-28T00:12:34;17.50;99.90
13982;DHT22;7065;50.880;5.502;2022-10-28T00:15:01;17.50;99.90
13982;DHT22;7065;50.880;5.502;2022-10-28T00:17:26;17.40;99.90
13982;DHT22;7065;50.880;5.502;2022-10-28T00:19:52;17.30;99.90
13982;DHT22;7065;50.880;5.502;2022-10-28T00:22:18;17.20;99.90
13982;DHT22;7065;50.880;5.502;2022-10-28T00:24:43;17.10;99.90
13982;DHT22;7065;50.880;5.502;2022-10-28T00:27:09;17.00;99.90
13982;DHT22;7065;50.880;5.502;2022-10-28T00:29:35;16.90;99.90
13982;DHT22;7065;50.880;5.502;2022-10-28T00:32:01;16.80;99.90
13982;DHT22;7065;50.880;5.502;2022-10-28T00:34:26;16.70;99.90
13982;DHT22;7065;50.880;5.502;2022-10-28T00:36:52;16.60;99.90
13982;DHT22;7065;50.880;5.502;2022-10-28T00:39:20;16.50;99.90
13982;DHT22;7065;50.880;5.502;2022-10-28T00:41:48;16.40;99.90
13982;DHT22;7065;50.880;5.502;2022-10-28T00:47:55;16.10;99.90
13982;DHT22;7065;50.880;5.502;2022-10-28T00:53:00;16.00;99.90
13982;DHT22;7065;50.880;5.502;2022-10-28T00:55:28;15.90;99.90
13982;DHT22;7065;50.880;5.502;2022-10-28T00:57:54;16.00;99.90
13982;DHT22;7065;50.880;5.502;2022-10-28T01:00:22;16.00;99.90
13982;DHT22;7065;50.880;5.502;2022-10-28T01:02:48;16.00;99.90
13982;DHT22;7065;50.880;5.502;2022-10-28T01:05:24;16.10;99.90
13982;DHT22;7065;50.880;5.502;2022-10-28T01:07:51;16.10;99.90
13982;DHT22;7065;50.880;5.502;2022-10-28T01:10:18;16.10;99.90
13982;DHT22;7065;50.880;5.502;2022-10-28T01:12:58;16.10;99.90
13982;DHT22;7065;50.880;5.502;2022-10-28T01:28:33;16.20;99.90
13982;DHT22;7065;50.880;5.502;2022-10-28T01:34:19;16.30;99.90
13982;DHT22;7065;50.880;5.502;2022-10-28T01:39:50;16.30;99.90
13982;DHT22;7065;50.880;5.502;2022-10-28T01:45:00;16.30;99.90
13982;DHT22;7065;50.880;5.502;2022-10-28T01:47:56;16.30;99.90
13982;DHT22;7065;50.880;5.502;2022-10-28T01:53:14;16.30;99.90
13982;DHT22;7065;50.880;5.502;2022-10-28T01:55:45;16.40;99.90
13982;DHT22;7065;50.880;5.502;2022-10-28T01:58:16;16.40;99.90
13982;DHT22;7065;50.880;5.502;2022-10-28T02:00:44;16.40;99.90
13982;DHT22;7065;50.880;5.502;2022-10-28T02:03:10;16.40;99.90
13982;DHT22;7065;50.880;5.502;2022-10-28T02:05:51;16.50;99.90
13982;DHT22;7065;50.880;5.502;2022-10-28T02:08:21;16.50;99.90
13982;DHT22;7065;50.880;5.502;2022-10-28T02:16:45;16.50;99.90
13982;DHT22;7065;50.880;5.502;2022-10-28T02:19:25;16.40;99.90
13982;DHT22;7065;50.880;5.502;2022-10-28T02:26:00;16.40;99.90
13982;DHT22;7065;50.880;5.502;2022-10-28T02:28:08;16.40;99.90
13982;DHT22;7065;50.880;5.502;2022-10-28T02:30:47;16.40;99.90
13982;DHT22;7065;50.880;5.502;2022-10-28T02:33:20;16.40;99.90
13982;DHT22;7065;50.880;5.502;2022-10-28T02:38:50;16.40;99.90
13982;DHT22;7065;50.880;5.502;2022-10-28T02:44:07;16.50;99.90
13982;DHT22;7065;50.880;5.502;2022-10-28T02:46:34;16.50;99.90
13982;DHT22;7065;50.880;5.502;2022-10-28T02:49:06;16.50;99.90
13982;DHT22;7065;50.880;5.502;2022-10-28T02:51:45;16.50;99.90
13982;DHT22;7065;50.880;5.502;2022-10-28T02:54:26;16.50;99.90
13982;DHT22;7065;50.880;5.502;2022-10-28T02:57:30;16.50;99.90
13982;DHT22;7065;50.880;5.502;2022-10-28T02:59:59;16.50;99.90
13982;DHT22;7065;50.880;5.502;2022-10-28T03:02:26;16.40;99.90
13982;DHT22;7065;50.880;5.502;2022-10-28T03:04:52;16.40;99.90
13982;DHT22;7065;50.880;5.502;2022-10-28T03:07:18;16.40;99.90
13982;DHT22;7065;50.880;5.502;2022-10-28T03:09:44;16.30;99.90
13982;DHT22;7065;50.880;5.502;2022-10-28T03:12:10;16.30;99.90
13982;DHT22;7065;50.880;5.502;2022-10-28T03:14:36;16.30;99.90
13982;DHT22;7065;50.880;5.502;2022-10-28T03:17:02;16.30;99.90
13982;DHT22;7065;50.880;5.502;2022-10-28T03:19:28;16.30;99.90
13982;DHT22;7065;50.880;5.502;2022-10-28T03:21:54;16.20;99.90
13982;DHT22;7065;50.880;5.502;2022-10-28T03:24:19;16.20;99.90
13982;DHT22;7065;50.880;5.502;2022-10-28T03:26:45;16.20;99.90
13982;DHT22;7065;50.880;5.502;2022-10-28T03:29:10;16.20;99.90
13982;DHT22;7065;50.880;5.502;2022-10-28T03:31:36;16.20;99.90
13982;DHT22;7065;50.880;5.502;2022-10-28T03:34:02;16.10;99.90
13982;DHT22;7065;50.880;5.502;2022-10-28T03:36:27;16.00;99.90
13982;DHT22;7065;50.880;5.502;2022-10-28T03:38:53;16.00;99.90
13982;DHT22;7065;50.880;5.502;2022-10-28T03:41:19;15.90;99.90
13982;DHT22;7065;50.880;5.502;2022-10-28T03:43:44;15.90;99.90
13982;DHT22;7065;50.880;5.502;2022-10-28T03:46:10;15.70;99.90
13982;DHT22;7065;50.880;5.502;2022-10-28T03:48:36;15.70;99.90
13982;DHT22;7065;50.880;5.502;2022-10-28T03:51:02;15.70;99.90
13982;DHT22;7065;50.880;5.502;2022-10-28T03:53:28;15.60;99.90
13982;DHT22;7065;50.880;5.502;2022-10-28T03:55:55;15.60;99.90
13982;DHT22;7065;50.880;5.502;2022-10-28T03:58:21;15.60;99.90
13982;DHT22;7065;50.880;5.502;2022-10-28T04:00:48;15.70;99.90
13982;DHT22;7065;50.880;5.502;2022-10-28T04:03:15;15.70;99.90
13982;DHT22;7065;50.880;5.502;2022-10-28T04:05:41;15.80;99.90
13982;DHT22;7065;50.880;5.502;2022-10-28T04:08:07;15.80;99.90
13982;DHT22;7065;50.880;5.502;2022-10-28T04:10:32;15.80;99.90
13982;DHT22;7065;50.880;5.502;2022-10-28T04:13:02;15.80;99.90
13982;DHT22;7065;50.880;5.502;2022-10-28T04:15:28;15.90;99.90
13982;DHT22;7065;50.880;5.502;2022-10-28T04:17:54;16.00;99.90
13982;DHT22;7065;50.880;5.502;2022-10-28T04:20:19;16.00;99.90
13982;DHT22;7065;50.880;5.502;2022-10-28T04:22:45;16.10;99.90
13982;DHT22;7065;50.880;5.502;2022-10-28T04:25:11;16.10;99.90
13982;DHT22;7065;50.880;5.502;2022-10-28T04:27:36;16.20;99.90
13982;DHT22;7065;50.880;5.502;2022-10-28T04:30:02;16.30;99.90
13982;DHT22;7065;50.880;5.502;2022-10-28T04:32:28;16.40;99.90
13982;DHT22;7065;50.880;5.502;2022-10-28T04:34:54;16.40;99.90
13982;DHT22;7065;50.880;5.502;2022-10-28T04:37:19;16.50;99.90
13982;DHT22;7065;50.880;5.502;2022-10-28T04:39:45;16.50;99.90
13982;DHT22;7065;50.880;5.502;2022-10-28T04:42:11;16.50;99.90
13982;DHT22;7065;50.880;5.502;2022-10-28T04:44:36;16.60;99.90
13982;DHT22;7065;50.880;5.502;2022-10-28T04:47:02;16.60;99.90
13982;DHT22;7065;50.880;5.502;2022-10-28T04:49:28;16.60;99.90
13982;DHT22;7065;50.880;5.502;2022-10-28T04:51:53;16.60;99.90
13982;DHT22;7065;50.880;5.502;2022-10-28T04:54:19;16.60;99.90
13982;DHT22;7065;50.880;5.502;2022-10-28T04:56:44;16.60;99.90
13982;DHT22;7065;50.880;5.502;2022-10-28T04:59:10;16.60;99.90
13982;DHT22;7065;50.880;5.502;2022-10-28T05:01:36;16.60;99.90
13982;DHT22;7065;50.880;5.502;2022-10-28T05:04:01;16.60;99.90
13982;DHT22;7065;50.880;5.502;2022-10-28T05:06:27;16.60;99.90
13982;DHT22;7065;50.880;5.502;2022-10-28T05:08:53;16.50;99.90
13982;DHT22;7065;50.880;5.502;2022-10-28T05:11:19;16.50;99.90
13982;DHT22;7065;50.880;5.502;2022-10-28T05:13:45;16.50;99.90
13982;DHT22;7065;50.880;5.502;2022-10-28T05:16:10;16.40;99.90
13982;DHT22;7065;50.880;5.502;2022-10-28T05:18:36;16.40;99.90
13982;DHT22;7065;50.880;5.502;2022-10-28T05:21:02;16.30;99.90
13982;DHT22;7065;50.880;5.502;2022-10-28T05:23:27;16.20;99.90
13982;DHT22;7065;50.880;5.502;2022-10-28T05:25:53;16.10;99.90
13982;DHT22;7065;50.880;5.502;2022-10-28T05:28:19;16.10;99.90
13982;DHT22;7065;50.880;5.502;2022-10-28T05:30:46;16.00;99.90
13982;DHT22;7065;50.880;5.502;2022-10-28T05:33:11;16.00;99.90
13982;DHT22;7065;50.880;5.502;2022-10-28T05:35:37;15.90;99.90
13982;DHT22;7065;50.880;5.502;2022-10-28T05:38:03;15.80;99.90
13982;DHT22;7065;50.880;5.502;2022-10-28T05:40:29;15.80;99.90
13982;DHT22;7065;50.880;5.502;2022-10-28T05:42:57;15.70;99.90
13982;DHT22;7065;50.880;5.502;2022-10-28T05:45:23;15.70;99.90
13982;DHT22;7065;50.880;5.502;2022-10-28T05:47:48;15.70;99.90
13982;DHT22;7065;50.880;5.502;2022-10-28T05:50:16;15.70;99.90
13982;DHT22;7065;50.880;5.502;2022-10-28T05:52:50;15.60;99.90
13982;DHT22;7065;50.880;5.502;2022-10-28T05:55:17;15.60;99.90
13982;DHT22;7065;50.880;5.502;2022-10-28T05:57:47;15.60;99.90
13982;DHT22;7065;50.880;5.502;2022-10-28T06:00:13;15.60;99.90
13982;DHT22;7065;50.880;5.502;2022-10-28T06:02:40;15.60;99.90
13982;DHT22;7065;50.880;5.502;2022-10-28T06:05:06;15.60;99.90
13982;DHT22;7065;50.880;5.502;2022-10-28T06:07:32;15.60;99.90
13982;DHT22;7065;50.880;5.502;2022-10-28T06:09:59;15.70;99.90
13982;DHT22;7065;50.880;5.502;2022-10-28T06:12:25;15.70;99.90
13982;DHT22;7065;50.880;5.502;2022-10-28T06:14:51;15.70;99.90
13982;DHT22;7065;50.880;5.502;2022-10-28T06:17:16;15.70;99.90
13982;DHT22;7065;50.880;5.502;2022-10-28T06:19:42;15.70;99.90
13982;DHT22;7065;50.880;5.502;2022-10-28T06:22:10;15.70;99.90
13982;DHT22;7065;50.880;5.502;2022-10-28T06:24:36;15.70;99.90
13982;DHT22;7065;50.880;5.502;2022-10-28T06:27:02;15.70;99.90
13982;DHT22;7065;50.880;5.502;2022-10-28T06:29:27;15.70;99.90
13982;DHT22;7065;50.880;5.502;2022-10-28T06:31:53;15.70;99.90
13982;DHT22;7065;50.880;5.502;2022-10-28T06:34:19;15.60;99.90
13982;DHT22;7065;50.880;5.502;2022-10-28T06:36:44;15.60;99.90
13982;DHT22;7065;50.880;5.502;2022-10-28T06:39:10;15.60;99.90
13982;DHT22;7065;50.880;5.502;2022-10-28T06:41:35;15.60;99.90
13982;DHT22;7065;50.880;5.502;2022-10-28T06:44:01;15.60;99.90
13982;DHT22;7065;50.880;5.502;2022-10-28T06:46:27;15.60;99.90
13982;DHT22;7065;50.880;5.502;2022-10-28T06:48:54;15.50;99.90
13982;DHT22;7065;50.880;5.502;2022-10-28T06:51:20;15.60;99.90
13982;DHT22;7065;50.880;5.502;2022-10-28T06:53:51;15.60;99.90
13982;DHT22;7065;50.880;5.502;2022-10-28T06:56:17;15.60;99.90
13982;DHT22;7065;50.880;5.502;2022-10-28T06:58:43;15.60;99.90
13982;DHT22;7065;50.880;5.502;2022-10-28T07:01:09;15.70;99.90
13982;DHT22;7065;50.880;5.502;2022-10-28T07:03:34;15.70;99.90
13982;DHT22;7065;50.880;5.502;2022-10-28T07:06:00;15.70;99.90
13982;DHT22;7065;50.880;5.502;2022-10-28T07:08:27;15.70;99.90
13982;DHT22;7065;50.880;5.502;2022-10-28T07:10:54;15.70;99.90
13982;DHT22;7065;50.880;5.502;2022-10-28T07:13:20;15.70;99.90
13982;DHT22;7065;50.880;5.502;2022-10-28T07:15:51;15.70;99.90
13982;DHT22;7065;50.880;5.502;2022-10-28T07:18:17;15.70;99.90
13982;DHT22;7065;50.880;5.502;2022-10-28T07:20:42;15.70;99.90
13982;DHT22;7065;50.880;5.502;2022-10-28T07:23:08;15.70;99.90
13982;DHT22;7065;50.880;5.502;2022-10-28T07:25:33;15.70;99.90
13982;DHT22;7065;50.880;5.502;2022-10-28T07:28:00;15.70;99.90
13982;DHT22;7065;50.880;5.502;2022-10-28T07:30:26;15.70;99.90
13982;DHT22;7065;50.880;5.502;2022-10-28T07:32:52;15.70;99.90
13982;DHT22;7065;50.880;5.502;2022-10-28T07:35:18;15.60;99.90
13982;DHT22;7065;50.880;5.502;2022-10-28T07:37:44;15.70;99.90
13982;DHT22;7065;50.880;5.502;2022-10-28T07:40:10;15.60;99.90
13982;DHT22;7065;50.880;5.502;2022-10-28T07:42:36;15.70;99.90
13982;DHT22;7065;50.880;5.502;2022-10-28T07:45:03;15.70;99.90
13982;DHT22;7065;50.880;5.502;2022-10-28T07:47:29;15.70;99.90
13982;DHT22;7065;50.880;5.502;2022-10-28T07:49:54;15.80;99.90
13982;DHT22;7065;50.880;5.502;2022-10-28T07:52:21;15.90;99.90
13982;DHT22;7065;50.880;5.502;2022-10-28T07:54:46;15.90;99.90
13982;DHT22;7065;50.880;5.502;2022-10-28T07:57:12;16.00;99.90
13982;DHT22;7065;50.880;5.502;2022-10-28T07:59:38;16.10;99.90
13982;DHT22;7065;50.880;5.502;2022-10-28T08:02:04;16.20;99.90
13982;DHT22;7065;50.880;5.502;2022-10-28T08:04:30;16.30;99.90
13982;DHT22;7065;50.880;5.502;2022-10-28T08:06:56;16.40;99.90
13982;DHT22;7065;50.880;5.502;2022-10-28T08:09:22;16.60;99.90
13982;DHT22;7065;50.880;5.502;2022-10-28T08:11:48;16.70;99.90
13982;DHT22;7065;50.880;5.502;2022-10-28T08:14:14;16.80;99.90
13982;DHT22;7065;50.880;5.502;2022-10-28T08:16:39;17.00;99.90
13982;DHT22;7065;50.880;5.502;2022-10-28T08:19:05;17.10;99.90
13982;DHT22;7065;50.880;5.502;2022-10-28T08:21:31;17.20;99.90
13982;DHT22;7065;50.880;5.502;2022-10-28T08:23:57;17.30;99.90
13982;DHT22;7065;50.880;5.502;2022-10-28T08:26:22;17.40;99.90
13982;DHT22;7065;50.880;5.502;2022-10-28T08:28:48;17.50;99.90
13982;DHT22;7065;50.880;5.502;2022-10-28T08:31:14;17.60;99.90
13982;DHT22;7065;50.880;5.502;2022-10-28T08:33:42;17.60;99.90
13982;DHT22;7065;50.880;5.502;2022-10-28T08:36:14;17.70;99.90
13982;DHT22;7065;50.880;5.502;2022-10-28T08:38:42;17.80;99.90
13982;DHT22;7065;50.880;5.502;2022-10-28T08:46:34;18.10;99.90
13982;DHT22;7065;50.880;5.502;2022-10-28T08:49:10;18.20;99.90
13982;DHT22;7065;50.880;5.502;2022-10-28T08:54:16;18.40;99.90
13982;DHT22;7065;50.880;5.502;2022-10-28T08:56:44;18.50;99.90
13982;DHT22;7065;50.880;5.502;2022-10-28T08:59:21;18.60;99.90
13982;DHT22;7065;50.880;5.502;2022-10-28T09:02:23;18.60;99.90
13982;DHT22;7065;50.880;5.502;2022-10-28T09:04:55;18.70;99.90
13982;DHT22;7065;50.880;5.502;2022-10-28T09:07:24;18.80;99.90
13982;DHT22;7065;50.880;5.502;2022-10-28T09:09:52;18.90;99.90
13982;DHT22;7065;50.880;5.502;2022-10-28T09:12:56;19.10;99.90
13982;DHT22;7065;50.880;5.502;2022-10-28T09:18:09;19.10;99.90
13982;DHT22;7065;50.880;5.502;2022-10-28T09:20:51;19.20;99.90
13982;DHT22;7065;50.880;5.502;2022-10-28T09:34:36;19.50;99.90
13982;DHT22;7065;50.880;5.502;2022-10-28T09:37:14;19.60;99.90
13982;DHT22;7065;50.880;5.502;2022-10-28T09:39:52;19.60;99.90
13982;DHT22;7065;50.880;5.502;2022-10-28T09:42:34;19.70;99.90
13982;DHT22;7065;50.880;5.502;2022-10-28T09:45:10;19.80;99.90
13982;DHT22;7065;50.880;5.502;2022-10-28T09:47:40;19.80;99.90
13982;DHT22;7065;50.880;5.502;2022-10-28T09:50:16;19.80;99.90
13982;DHT22;7065;50.880;5.502;2022-10-28T09:55:29;20.00;99.90
13982;DHT22;7065;50.880;5.502;2022-10-28T09:57:57;20.10;99.90
13982;DHT22;7065;50.880;5.502;2022-10-28T10:00:22;20.10;99.90
13982;DHT22;7065;50.880;5.502;2022-10-28T10:02:50;20.20;99.90
13982;DHT22;7065;50.880;5.502;2022-10-28T10:05:19;20.20;99.90
13982;DHT22;7065;50.880;5.502;2022-10-28T10:07:49;20.40;99.90
13982;DHT22;7065;50.880;5.502;2022-10-28T10:10:22;20.50;99.90
13982;DHT22;7065;50.880;5.502;2022-10-28T10:12:51;20.60;99.90
13982;DHT22;7065;50.880;5.502;2022-10-28T10:15:32;20.70;99.90
13982;DHT22;7065;50.880;5.502;2022-10-28T10:18:02;20.90;99.90
13982;DHT22;7065;50.880;5.502;2022-10-28T10:20:47;20.90;99.90
13982;DHT22;7065;50.880;5.502;2022-10-28T10:23:42;21.10;99.90
13982;DHT22;7065;50.880;5.502;2022-10-28T10:26:13;21.00;99.90
13982;DHT22;7065;50.880;5.502;2022-10-28T10:28:48;21.10;99.90
13982;DHT22;7065;50.880;5.502;2022-10-28T10:31:19;21.10;99.90
13982;DHT22;7065;50.880;5.502;2022-10-28T10:33:48;21.10;99.90
13982;DHT22;7065;50.880;5.502;2022-10-28T10:36:17;21.10;99.90
13982;DHT22;7065;50.880;5.502;2022-10-28T10:38:51;21.20;99.90
13982;DHT22;7065;50.880;5.502;2022-10-28T10:41:42;21.30;99.90
13982;DHT22;7065;50.880;5.502;2022-10-28T10:49:25;21.40;99.90
13982;DHT22;7065;50.880;5.502;2022-10-28T10:51:52;21.50;99.90
13982;DHT22;7065;50.880;5.502;2022-10-28T10:54:18;21.60;99.90
13982;DHT22;7065;50.880;5.502;2022-10-28T10:56:44;21.60;99.90
13982;DHT22;7065;50.880;5.502;2022-10-28T10:59:26;21.60;99.90
13982;DHT22;7065;50.880;5.502;2022-10-28T11:01:57;21.70;99.90
13982;DHT22;7065;50.880;5.502;2022-10-28T11:04:25;21.70;99.90
13982;DHT22;7065;50.880;5.502;2022-10-28T11:06:54;21.80;99.90
13982;DHT22;7065;50.880;5.502;2022-10-28T11:09:30;21.90;99.90
13982;DHT22;7065;50.880;5.502;2022-10-28T11:11:58;22.10;99.90
13982;DHT22;7065;50.880;5.502;2022-10-28T11:14:29;22.10;99.90
13982;DHT22;7065;50.880;5.502;2022-10-28T11:16:58;22.20;99.90
13982;DHT22;7065;50.880;5.502;2022-10-28T11:19:34;22.20;99.90
13982;DHT22;7065;50.880;5.502;2022-10-28T11:29:58;22.30;99.90
13982;DHT22;7065;50.880;5.502;2022-10-28T11:40:12;22.40;99.90
13982;DHT22;7065;50.880;5.502;2022-10-28T11:42:46;22.50;99.90
13982;DHT22;7065;50.880;5.502;2022-10-28T11:45:38;22.40;99.90
13982;DHT22;7065;50.880;5.502;2022-10-28T11:48:21;22.50;99.90
13982;DHT22;7065;50.880;5.502;2022-10-28T11:53:59;22.50;99.90
13982;DHT22;7065;50.880;5.502;2022-10-28T12:04:24;22.70;99.90
13982;DHT22;7065;50.880;5.502;2022-10-28T12:12:23;22.80;99.90
13982;DHT22;7065;50.880;5.502;2022-10-28T12:17:23;22.80;99.90
13982;DHT22;7065;50.880;5.502;2022-10-28T12:20:03;22.80;99.90
13982;DHT22;7065;50.880;5.502;2022-10-28T12:22:39;22.90;99.90
13982;DHT22;7065;50.880;5.502;2022-10-28T12:25:14;22.90;99.90
13982;DHT22;7065;50.880;5.502;2022-10-28T12:27:43;22.90;99.90
13982;DHT22;7065;50.880;5.502;2022-10-28T12:30:35;22.90;99.90
13982;DHT22;7065;50.880;5.502;2022-10-28T12:33:41;22.80;99.90
13982;DHT22;7065;50.880;5.502;2022-10-28T12:38:44;22.80;99.90
13982;DHT22;7065;50.880;5.502;2022-10-28T12:44:13;22.70;99.90
13982;DHT22;7065;50.880;5.502;2022-10-28T12:57:46;22.50;99.90
13982;DHT22;7065;50.880;5.502;2022-10-28T13:02:53;22.40;99.90
13982;DHT22;7065;50.880;5.502;2022-10-28T13:05:26;22.40;99.90
13982;DHT22;7065;50.880;5.502;2022-10-28T13:13:56;22.30;99.90
13982;DHT22;7065;50.880;5.502;2022-10-28T13:24:46;22.20;99.90
13982;DHT22;7065;50.880;5.502;2022-10-28T13:27:15;22.30;99.90
13982;DHT22;7065;50.880;5.502;2022-10-28T13:29:43;22.20;99.90
13982;DHT22;7065;50.880;5.502;2022-10-28T13:32:38;22.30;99.90
13982;DHT22;7065;50.880;5.502;2022-10-28T13:35:12;22.20;99.90
13982;DHT22;7065;50.880;5.502;2022-10-28T13:37:39;22.20;99.90
13982;DHT22;7065;50.880;5.502;2022-10-28T13:40:05;22.20;99.90
13982;DHT22;7065;50.880;5.502;2022-10-28T13:42:44;22.10;99.90
13982;DHT22;7065;50.880;5.502;2022-10-28T13:45:46;22.10;99.90
13982;DHT22;7065;50.880;5.502;2022-10-28T13:59:00;22.00;99.90
13982;DHT22;7065;50.880;5.502;2022-10-28T14:01:46;22.10;99.90
13982;DHT22;7065;50.880;5.502;2022-10-28T14:04:33;22.10;99.90
13982;DHT22;7065;50.880;5.502;2022-10-28T14:09:36;22.00;99.90
13982;DHT22;7065;50.880;5.502;2022-10-28T14:17:23;21.90;99.90
13982;DHT22;7065;50.880;5.502;2022-10-28T14:19:51;21.80;99.90
13982;DHT22;7065;50.880;5.502;2022-10-28T14:22:32;21.80;99.90
13982;DHT22;7065;50.880;5.502;2022-10-28T14:24:58;21.80;99.90
13982;DHT22;7065;50.880;5.502;2022-10-28T14:27:38;21.80;99.90
13982;DHT22;7065;50.880;5.502;2022-10-28T14:30:15;21.70;99.90
13982;DHT22;7065;50.880;5.502;2022-10-28T14:40:53;21.60;99.90
13982;DHT22;7065;50.880;5.502;2022-10-28T14:48:54;21.50;99.90
13982;DHT22;7065;50.880;5.502;2022-10-28T14:51:37;21.50;99.90
13982;DHT22;7065;50.880;5.502;2022-10-28T14:54:08;21.40;99.90
13982;DHT22;7065;50.880;5.502;2022-10-28T14:56:38;21.40;99.90
13982;DHT22;7065;50.880;5.502;2022-10-28T14:59:37;21.40;99.90
13982;DHT22;7065;50.880;5.502;2022-10-28T15:02:14;21.40;99.90
13982;DHT22;7065;50.880;5.502;2022-10-28T15:04:43;21.30;99.90
13982;DHT22;7065;50.880;5.502;2022-10-28T15:07:17;21.30;99.90
13982;DHT22;7065;50.880;5.502;2022-10-28T15:09:45;21.20;99.90
13982;DHT22;7065;50.880;5.502;2022-10-28T15:12:14;21.20;99.90
13982;DHT22;7065;50.880;5.502;2022-10-28T15:14:48;21.10;99.90
13982;DHT22;7065;50.880;5.502;2022-10-28T15:17:21;21.10;99.90
13982;DHT22;7065;50.880;5.502;2022-10-28T15:19:49;21.10;99.90
13982;DHT22;7065;50.880;5.502;2022-10-28T15:25:09;20.90;99.90
13982;DHT22;7065;50.880;5.502;2022-10-28T15:27:36;20.80;99.90
13982;DHT22;7065;50.880;5.502;2022-10-28T15:30:24;20.80;99.90
13982;DHT22;7065;50.880;5.502;2022-10-28T15:32:54;20.70;99.90
13982;DHT22;7065;50.880;5.502;2022-10-28T15:37:58;20.70;99.90
13982;DHT22;7065;50.880;5.502;2022-10-28T15:40:27;20.60;99.90
13982;DHT22;7065;50.880;5.502;2022-10-28T15:45:29;20.50;99.90
13982;DHT22;7065;50.880;5.502;2022-10-28T15:47:56;20.40;99.90
13982;DHT22;7065;50.880;5.502;2022-10-28T15:50:29;20.30;99.90
13982;DHT22;7065;50.880;5.502;2022-10-28T15:55:40;20.20;99.90
13982;DHT22;7065;50.880;5.502;2022-10-28T16:00:35;20.10;99.90
13982;DHT22;7065;50.880;5.502;2022-10-28T16:05:51;20.00;99.90
13982;DHT22;7065;50.880;5.502;2022-10-28T16:08:21;20.00;99.90
13982;DHT22;7065;50.880;5.502;2022-10-28T16:10:48;20.00;99.90
13982;DHT22;7065;50.880;5.502;2022-10-28T16:13:25;19.90;99.90
13982;DHT22;7065;50.880;5.502;2022-10-28T16:16:00;20.00;99.90
13982;DHT22;7065;50.880;5.502;2022-10-28T16:18:28;19.90;99.90
13982;DHT22;7065;50.880;5.502;2022-10-28T16:20:55;19.80;99.90
13982;DHT22;7065;50.880;5.502;2022-10-28T16:23:24;19.70;99.90
13982;DHT22;7065;50.880;5.502;2022-10-28T16:25:51;19.60;99.90
13982;DHT22;7065;50.880;5.502;2022-10-28T16:28:24;19.60;99.90
13982;DHT22;7065;50.880;5.502;2022-10-28T16:30:54;19.50;99.90
13982;DHT22;7065;50.880;5.502;2022-10-28T16:33:30;19.40;99.90
13982;DHT22;7065;50.880;5.502;2022-10-28T16:35:57;19.40;99.90
13982;DHT22;7065;50.880;5.502;2022-10-28T16:38:23;19.30;99.90
13982;DHT22;7065;50.880;5.502;2022-10-28T16:40:49;19.30;99.90
13982;DHT22;7065;50.880;5.502;2022-10-28T16:43:23;19.20;99.90
13982;DHT22;7065;50.880;5.502;2022-10-28T16:45:52;19.20;99.90
13982;DHT22;7065;50.880;5.502;2022-10-28T16:48:19;19.10;99.90
13982;DHT22;7065;50.880;5.502;2022-10-28T16:51:10;19.10;99.90
13982;DHT22;7065;50.880;5.502;2022-10-28T16:53:36;19.10;99.90
13982;DHT22;7065;50.880;5.502;2022-10-28T16:56:04;19.00;99.90
13982;DHT22;7065;50.880;5.502;2022-10-28T16:58:30;19.00;99.90
13982;DHT22;7065;50.880;5.502;2022-10-28T17:00:58;18.90;99.90
13982;DHT22;7065;50.880;5.502;2022-10-28T17:03:24;18.80;99.90
13982;DHT22;7065;50.880;5.502;2022-10-28T17:05:50;18.70;99.90
13982;DHT22;7065;50.880;5.502;2022-10-28T17:08:18;18.60;99.90
13982;DHT22;7065;50.880;5.502;2022-10-28T17:10:44;18.50;99.90
13982;DHT22;7065;50.880;5.502;2022-10-28T17:13:14;18.40;99.90
13982;DHT22;7065;50.880;5.502;2022-10-28T17:15:41;18.40;99.90
13982;DHT22;7065;50.880;5.502;2022-10-28T17:18:08;18.40;99.90
13982;DHT22;7065;50.880;5.502;2022-10-28T17:20:34;18.50;99.90
13982;DHT22;7065;50.880;5.502;2022-10-28T17:23:00;18.50;99.90
13982;DHT22;7065;50.880;5.502;2022-10-28T17:25:26;18.40;99.90
13982;DHT22;7065;50.880;5.502;2022-10-28T17:27:52;18.30;99.90
13982;DHT22;7065;50.880;5.502;2022-10-28T17:30:18;18.30;99.90
13982;DHT22;7065;50.880;5.502;2022-10-28T17:32:44;18.20;99.90
13982;DHT22;7065;50.880;5.502;2022-10-28T17:35:13;18.10;99.90
13982;DHT22;7065;50.880;5.502;2022-10-28T17:37:38;18.20;99.90
13982;DHT22;7065;50.880;5.502;2022-10-28T17:40:05;18.10;99.90
13982;DHT22;7065;50.880;5.502;2022-10-28T17:42:30;18.10;99.90
13982;DHT22;7065;50.880;5.502;2022-10-28T17:44:56;18.10;99.90
13982;DHT22;7065;50.880;5.502;2022-10-28T17:47:22;18.10;99.90
13982;DHT22;7065;50.880;5.502;2022-10-28T17:49:51;18.20;99.90
13982;DHT22;7065;50.880;5.502;2022-10-28T17:52:17;18.20;99.90
13982;DHT22;7065;50.880;5.502;2022-10-28T17:54:42;18.30;99.90
13982;DHT22;7065;50.880;5.502;2022-10-28T17:57:08;18.30;99.90
13982;DHT22;7065;50.880;5.502;2022-10-28T17:59:34;18.30;99.90
13982;DHT22;7065;50.880;5.502;2022-10-28T18:01:59;18.30;99.90
13982;DHT22;7065;50.880;5.502;2022-10-28T18:04:25;18.30;99.90
13982;DHT22;7065;50.880;5.502;2022-10-28T18:06:55;18.20;99.90
13982;DHT22;7065;50.880;5.502;2022-10-28T18:09:22;18.20;99.90
13982;DHT22;7065;50.880;5.502;2022-10-28T18:11:51;18.20;99.90
13982;DHT22;7065;50.880;5.502;2022-10-28T18:14:17;18.30;99.90
13982;DHT22;7065;50.880;5.502;2022-10-28T18:16:44;18.30;99.90
13982;DHT22;7065;50.880;5.502;2022-10-28T18:19:10;18.30;99.90
13982;DHT22;7065;50.880;5.502;2022-10-28T18:21:36;18.40;99.90
13982;DHT22;7065;50.880;5.502;2022-10-28T18:24:02;18.40;99.90
13982;DHT22;7065;50.880;5.502;2022-10-28T18:26:33;18.40;99.90
13982;DHT22;7065;50.880;5.502;2022-10-28T18:29:00;18.30;99.90
13982;DHT22;7065;50.880;5.502;2022-10-28T18:31:31;18.30;99.90
13982;DHT22;7065;50.880;5.502;2022-10-28T18:34:00;18.30;99.90
13982;DHT22;7065;50.880;5.502;2022-10-28T18:36:28;18.20;99.90
13982;DHT22;7065;50.880;5.502;2022-10-28T18:38:55;18.20;99.90
13982;DHT22;7065;50.880;5.502;2022-10-28T18:41:24;18.20;99.90
13982;DHT22;7065;50.880;5.502;2022-10-28T18:44:13;18.20;99.90
13982;DHT22;7065;50.880;5.502;2022-10-28T18:46:44;18.20;99.90
13982;DHT22;7065;50.880;5.502;2022-10-28T18:49:10;18.20;99.90
13982;DHT22;7065;50.880;5.502;2022-10-28T18:51:36;18.20;99.90
13982;DHT22;7065;50.880;5.502;2022-10-28T18:54:01;18.20;99.90
13982;DHT22;7065;50.880;5.502;2022-10-28T18:56:28;18.20;99.90
13982;DHT22;7065;50.880;5.502;2022-10-28T18:58:54;18.20;99.90
13982;DHT22;7065;50.880;5.502;2022-10-28T19:01:25;18.10;99.90
13982;DHT22;7065;50.880;5.502;2022-10-28T19:03:57;18.10;99.90
13982;DHT22;7065;50.880;5.502;2022-10-28T19:06:23;18.10;99.90
13982;DHT22;7065;50.880;5.502;2022-10-28T19:08:55;18.00;99.90
13982;DHT22;7065;50.880;5.502;2022-10-28T19:11:22;18.00;99.90